Time;durP1;ratioP1;P1;durP2;ratioP2;P2;SDS_P1;SDS_P2;PMS_P1;PMS_P2;Temp;Humidity;BMP_temperature;BMP_pressure;BME280_temperature;BME280_humidity;BME280_pressure;Samples;Min_cycle;Max_cycle;Signal;HPM_P1;HPM_P2
2022/10/05 11:58:48;;;;;;;;;1.25;0.75;;;;;33.32;100.00;101360.28;4359712;32;51167;-39
2022/10/05 12:01:33;;;;;;;;;2.50;2.00;;;;;33.29;100.00;101359.69;5113216;27;51012;-38
2022/10/05 12:05:02;;;;;;;;;0.75;0.75;;;;;33.17;100.00;101350.66;5117458;27;51506;-38
2022/10/05 12:07:55;;;;;;;;;0.75;0.75;;;;;33.13;100.00;101358.31;5076774;27;51478;-39
2022/10/05 12:11:16;;;;;;;;;1.75;1.75;;;;;33.18;100.00;101347.75;5076924;27;51517;-38
2022/10/05 12:14:38;;;;;;;;;1.00;0.50;;;;;33.14;100.00;101335.25;5096441;27;51197;-38
2022/10/05 12:17:36;;;;;;;;;6.25;0.50;;;;;33.17;100.00;101331.34;5097312;27;51135;-38
2022/10/05 12:20:48;;;;;;;;;1.50;1.50;;;;;33.10;100.00;101332.91;5114004;27;51227;-38
2022/10/05 12:23:39;;;;;;;;;3.75;2.25;;;;;32.99;100.00;101318.22;5103128;27;51929;-38
2022/10/05 12:26:36;;;;;;;;;1.00;1.00;;;;;33.03;100.00;101321.56;5103571;27;51056;-38
2022/10/05 12:29:40;;;;;;;;;6.50;2.00;;;;;33.07;100.00;101325.78;5106220;27;51206;-37
2022/10/05 12:32:32;;;;;;;;;1.25;1.25;;;;;33.06;100.00;101318.53;5108149;27;51238;-37
2022/10/05 12:35:23;;;;;;;;;1.00;0.00;;;;;33.04;100.00;101304.91;5109774;27;51092;-37
2022/10/05 12:38:20;;;;;;;;;2.50;1.00;;;;;33.00;100.00;101311.69;5112838;27;51294;-39
2022/10/05 12:41:16;;;;;;;;;1.00;1.00;;;;;32.98;100.00;101310.94;5100500;27;51163;-38
2022/10/05 12:44:19;;;;;;;;;2.50;0.50;;;;;32.97;100.00;101308.34;5110745;27;51077;-37
2022/10/05 12:47:19;;;;;;;;;5.00;2.50;;;;;32.94;100.00;101303.09;5097095;27;51187;-38
2022/10/05 12:50:21;;;;;;;;;0.50;0.25;;;;;32.90;100.00;101295.13;5116482;27;51490;-38
2022/10/05 12:53:32;;;;;;;;;3.75;1.00;;;;;32.92;100.00;101290.31;5116681;27;51101;-37
2022/10/05 12:56:43;;;;;;;;;1.00;1.00;;;;;32.88;100.00;101280.59;5117091;27;52263;-38
2022/10/05 12:59:46;;;;;;;;;0.00;0.00;;;;;32.91;100.00;101269.28;5083295;27;51749;-37
2022/10/05 13:02:41;;;;;;;;;2.50;0.00;;;;;32.96;100.00;101266.13;5089508;27;50996;-37
2022/10/05 13:05:33;;;;;;;;;0.00;0.00;;;;;32.98;100.00;101260.47;5090333;27;51432;-38
2022/10/05 13:08:26;;;;;;;;;0.00;0.00;;;;;32.90;100.00;101259.28;5096803;27;51157;-36
2022/10/05 13:11:45;;;;;;;;;0.00;0.00;;;;;32.92;100.00;101262.75;5084525;27;51018;-38
2022/10/05 13:14:42;;;;;;;;;0.00;0.00;;;;;33.05;100.00;101258.88;5094442;27;51460;-38
2022/10/05 13:17:49;;;;;;;;;2.00;2.00;;;;;33.03;100.00;101264.56;5092229;27;51359;-38
2022/10/05 13:20:45;;;;;;;;;7.00;5.00;;;;;32.89;100.00;101264.94;5087108;27;51132;-39
2022/10/05 13:23:38;;;;;;;;;3.00;1.50;;;;;32.88;100.00;101255.81;5098478;27;51382;-39
2022/10/05 13:26:47;;;;;;;;;10.50;5.25;;;;;32.81;100.00;101259.25;5079193;27;51531;-36
2022/10/05 13:29:41;;;;;;;;;2.00;0.00;;;;;32.73;100.00;101258.03;5086607;27;51194;-37
2022/10/05 13:32:33;;;;;;;;;1.00;1.00;;;;;32.64;100.00;101244.19;5098438;27;51124;-37
2022/10/05 13:35:27;;;;;;;;;1.50;1.50;;;;;32.49;100.00;101250.06;5081944;27;51421;-37
2022/10/05 13:38:20;;;;;;;;;0.25;0.25;;;;;32.41;100.00;101241.63;5091517;27;51155;-38
2022/10/05 13:41:36;;;;;;;;;4.50;1.75;;;;;32.42;100.00;101247.00;5091180;27;51112;-40
2022/10/05 13:44:45;;;;;;;;;3.00;1.75;;;;;32.47;100.00;101237.44;5088581;27;51140;-40
2022/10/05 13:47:37;;;;;;;;;1.50;1.00;;;;;32.50;100.00;101224.25;5090215;27;51053;-40
2022/10/05 13:50:30;;;;;;;;;5.00;2.00;;;;;32.58;100.00;101227.22;5084440;27;51143;-40
2022/10/05 13:53:18;;;;;;;;;0.75;0.75;;;;;32.69;100.00;101209.72;5075336;27;51096;-38
2022/10/05 13:56:09;;;;;;;;;2.00;2.00;;;;;32.62;100.00;101205.78;5081603;27;51182;-37
2022/10/05 13:59:23;;;;;;;;;2.75;1.00;;;;;32.53;100.00;101195.59;5084390;27;51156;-38
2022/10/05 14:02:34;;;;;;;;;4.75;1.75;;;;;32.26;100.00;101184.16;5080673;27;51097;-38
2022/10/05 14:05:21;;;;;;;;;4.00;2.25;;;;;32.10;100.00;101198.41;5085669;27;51171;-38
2022/10/05 14:08:06;;;;;;;;;3.00;1.50;;;;;32.08;100.00;101191.25;5088212;27;51321;-39
2022/10/05 14:10:52;;;;;;;;;2.75;1.00;;;;;31.99;100.00;101185.56;5077151;27;51474;-38
2022/10/05 14:13:46;;;;;;;;;0.25;0.25;;;;;31.84;100.00;101184.16;5088922;27;51253;-38
2022/10/05 14:16:32;;;;;;;;;1.50;0.00;;;;;31.80;100.00;101177.19;5080778;27;51143;-37
2022/10/05 14:19:25;;;;;;;;;2.50;0.75;;;;;31.72;100.00;101179.72;5096622;27;51587;-38
2022/10/05 14:22:24;;;;;;;;;3.75;2.00;;;;;31.62;100.00;101172.25;5083249;27;51128;-37
2022/10/05 14:25:08;;;;;;;;;3.75;3.75;;;;;31.69;100.00;101169.88;5080141;27;51368;-37
2022/10/05 14:27:59;;;;;;;;;2.00;2.00;;;;;31.67;100.00;101177.34;5080539;27;51146;-37
2022/10/05 14:31:15;;;;;;;;;0.75;0.75;;;;;31.61;100.00;101173.25;5086432;27;51177;-37
2022/10/05 14:34:38;;;;;;;;;0.75;0.75;;;;;31.52;100.00;101171.31;5085186;27;51556;-40
2022/10/05 14:37:26;;;;;;;;;1.75;0.00;;;;;31.33;100.00;101167.34;5084793;27;51146;-40
2022/10/05 14:40:22;;;;;;;;;3.25;1.75;;;;;31.38;100.00;101165.09;5082515;27;51161;-40
2022/10/05 14:43:15;;;;;;;;;2.00;1.50;;;;;31.53;100.00;101159.31;5093844;27;51484;-39
2022/10/05 14:46:03;;;;;;;;;0.50;0.00;;;;;31.50;100.00;101160.41;5087042;27;51480;-40
2022/10/05 14:48:47;;;;;;;;;3.75;1.00;;;;;31.50;100.00;101159.56;5094248;27;51648;-40
2022/10/05 14:51:33;;;;;;;;;1.00;1.00;;;;;31.53;100.00;101164.78;5079711;27;51521;-39
2022/10/05 14:54:28;;;;;;;;;3.00;3.00;;;;;31.52;100.00;101163.06;5087963;27;51221;-40
2022/10/05 14:57:36;;;;;;;;;2.75;1.00;;;;;31.50;100.00;101160.41;5079214;27;51224;-37
2022/10/05 15:00:23;;;;;;;;;3.25;2.00;;;;;31.59;100.00;101163.41;5086797;27;51365;-36
2022/10/05 15:03:17;;;;;;;;;1.00;1.00;;;;;31.58;100.00;101170.75;5085962;27;51090;-40
2022/10/05 15:06:03;;;;;;;;;4.75;4.75;;;;;31.62;100.00;101180.50;5072406;27;51181;-39
2022/10/05 15:09:13;;;;;;;;;3.00;1.75;;;;;31.76;100.00;101182.09;5081726;27;51145;-40
2022/10/05 15:12:00;;;;;;;;;1.00;0.75;;;;;31.80;100.00;101177.19;5092068;27;51234;-40
2022/10/05 15:14:46;;;;;;;;;1.75;1.00;;;;;31.77;100.00;101163.69;5084348;27;51422;-39
2022/10/05 15:17:41;;;;;;;;;2.00;1.75;;;;;31.79;100.00;101167.19;5087673;27;51297;-36
2022/10/05 15:20:52;;;;;;;;;1.00;0.00;;;;;31.89;100.00;101157.09;5082832;27;51183;-36
2022/10/05 15:23:38;;;;;;;;;1.75;0.75;;;;;31.87;100.00;101150.88;5087455;27;51144;-37
2022/10/05 15:26:45;;;;;;;;;2.25;0.75;;;;;31.80;100.00;101153.28;5088095;27;51527;-37
2022/10/05 15:29:53;;;;;;;;;1.50;1.50;;;;;31.79;100.00;101153.41;5083842;27;51347;-38
2022/10/05 15:32:54;;;;;;;;;2.00;2.00;;;;;31.76;100.00;101148.19;5081864;27;51253;-38
2022/10/05 15:36:03;;;;;;;;;2.00;2.00;;;;;31.69;100.00;101136.88;5079810;27;51089;-39
2022/10/05 15:39:39;;;;;;;;;2.50;1.25;;;;;31.60;100.00;101133.00;5084615;27;51436;-38
2022/10/05 15:42:37;;;;;;;;;2.00;1.50;;;;;31.40;100.00;101126.47;5063964;27;51144;-38
2022/10/05 15:45:36;;;;;;;;;0.25;0.00;;;;;31.29;100.00;101129.25;5091060;27;51743;-39
2022/10/05 15:48:48;;;;;;;;;4.75;1.75;;;;;31.18;100.00;101135.69;5087475;27;51142;-38
2022/10/05 15:51:49;;;;;;;;;1.75;1.50;;;;;31.10;100.00;101124.47;5090506;27;51218;-37
2022/10/05 15:55:01;;;;;;;;;1.75;1.75;;;;;30.98;100.00;101132.72;5099919;27;51343;-44
2022/10/05 15:57:55;;;;;;;;;5.75;1.75;;;;;30.87;100.00;101130.00;5098814;27;51089;-38
2022/10/05 16:01:18;;;;;;;;;2.25;1.50;;;;;30.82;100.00;101141.38;5090030;27;51609;-46
2022/10/05 16:04:35;;;;;;;;;3.00;0.75;;;;;30.76;100.00;101130.91;5089167;27;51201;-38
2022/10/05 16:10:36;;;;;;;;;1.75;1.75;;;;;30.64;100.00;101142.91;5082395;27;51349;-38
2022/10/05 16:13:59;;;;;;;;;0.75;0.75;;;;;30.57;100.00;101139.81;5096773;27;51398;-38
2022/10/05 16:17:18;;;;;;;;;4.25;2.75;;;;;30.65;100.00;101144.66;5079182;27;51685;-38
2022/10/05 16:20:13;;;;;;;;;3.75;0.75;;;;;30.58;100.00;101125.09;5087818;27;51101;-39
2022/10/05 16:23:35;;;;;;;;;0.25;0.00;;;;;30.57;100.00;101129.69;5080857;27;51181;-39
2022/10/05 16:27:15;;;;;;;;;2.50;2.50;;;;;30.61;100.00;101141.28;5090571;27;51437;-38
2022/10/05 16:30:25;;;;;;;;;2.75;2.75;;;;;30.67;100.00;101134.41;5056979;28;51151;-38
2022/10/05 16:33:15;;;;;;;;;8.25;4.00;;;;;30.71;100.00;101134.03;5071470;27;51550;-39
2022/10/05 16:36:07;;;;;;;;;8.00;8.00;;;;;30.70;100.00;101135.03;5088929;27;51344;-39
2022/10/05 16:39:20;;;;;;;;;4.00;3.25;;;;;30.63;100.00;101143.94;5098109;27;51093;-39
2022/10/05 16:42:10;;;;;;;;;5.50;2.75;;;;;30.57;100.00;101148.06;5094589;27;51439;-38
2022/10/05 16:45:46;;;;;;;;;4.50;2.00;;;;;30.58;100.00;101158.03;5090215;27;51271;-39
2022/10/05 16:48:35;;;;;;;;;4.75;1.75;;;;;30.54;100.00;101156.53;5078252;27;51217;-39
2022/10/05 16:51:20;;;;;;;;;2.75;2.75;;;;;30.49;100.00;101154.13;5098065;27;51111;-38
2022/10/05 16:54:07;;;;;;;;;7.25;4.25;;;;;30.50;100.00;101157.72;5089929;27;51151;-39
2022/10/05 16:57:01;;;;;;;;;4.00;2.00;;;;;30.49;100.00;101150.50;5089337;27;51175;-39
2022/10/05 16:59:49;;;;;;;;;9.50;5.75;;;;;30.54;100.00;101151.91;5094300;27;51156;-39
2022/10/05 17:02:50;;;;;;;;;5.50;4.00;;;;;30.52;100.00;101161.22;5098072;27;51127;-40
2022/10/05 17:05:56;;;;;;;;;7.50;7.50;;;;;30.49;100.00;101155.97;5095431;27;51121;-39
2022/10/05 17:09:10;;;;;;;;;3.50;3.50;;;;;30.36;100.00;101146.03;5090782;27;51496;-38
2022/10/05 17:12:15;;;;;;;;;3.50;3.50;;;;;30.20;100.00;101153.75;5082077;27;51073;-38
2022/10/05 17:15:24;;;;;;;;;5.50;3.50;;;;;30.01;100.00;101166.22;5094424;27;51161;-38
2022/10/05 17:18:15;;;;;;;;;1.50;1.00;;;;;29.93;100.00;101163.16;5088534;27;51191;-37
2022/10/05 17:21:22;;;;;;;;;5.50;4.00;;;;;29.94;100.00;101165.81;5102520;27;51064;-38
2022/10/05 17:24:31;;;;;;;;;3.50;3.00;;;;;29.88;100.00;101166.28;5096754;27;51180;-38
2022/10/05 17:27:30;;;;;;;;;7.75;4.25;;;;;29.79;100.00;101167.00;5087247;27;51223;-38
2022/10/05 17:30:37;;;;;;;;;6.00;4.50;;;;;29.81;100.00;101170.47;5102168;27;51525;-38
2022/10/05 17:33:31;;;;;;;;;4.25;4.25;;;;;29.82;100.00;101174.97;5101897;27;51191;-39
2022/10/05 17:36:17;;;;;;;;;5.25;4.00;;;;;29.83;100.00;101183.09;5102529;27;51547;-39
2022/10/05 17:39:12;;;;;;;;;12.00;10.50;;;;;29.83;100.00;101171.25;5091372;27;51203;-37
2022/10/05 17:42:29;;;;;;;;;5.00;4.00;;;;;29.78;100.00;101168.84;5091233;27;51185;-39
2022/10/05 17:45:14;;;;;;;;;5.75;3.25;;;;;29.76;100.00;101170.84;5089908;27;51111;-38
2022/10/05 17:48:08;;;;;;;;;3.25;2.00;;;;;29.73;100.00;101182.06;5081696;27;51223;-38
2022/10/05 17:57:03;;;;;;;;;8.00;4.00;;;;;29.61;100.00;101202.22;5080479;27;51117;-38
2022/10/05 17:59:57;;;;;;;;;2.00;2.00;;;;;29.53;100.00;101214.63;5092177;27;51201;-39
2022/10/05 18:02:42;;;;;;;;;12.00;9.50;;;;;29.49;100.00;101214.97;5083071;27;51477;-39
2022/10/05 18:05:28;;;;;;;;;6.75;4.75;;;;;29.50;100.00;101231.34;5086466;27;51331;-38
2022/10/05 18:08:15;;;;;;;;;6.25;5.00;;;;;29.49;100.00;101232.31;5084944;27;51197;-39
2022/10/05 18:11:15;;;;;;;;;6.50;6.25;;;;;29.49;100.00;101243.28;5089347;27;51168;-38
2022/10/05 18:14:19;;;;;;;;;8.50;5.00;;;;;29.50;100.00;101253.28;5092349;27;51569;-39
2022/10/05 18:17:13;;;;;;;;;7.75;7.75;;;;;29.52;100.00;101255.88;5080073;27;51102;-38
2022/10/05 18:20:27;;;;;;;;;10.25;5.50;;;;;29.54;100.00;101259.38;5082079;27;51104;-39
2022/10/05 18:23:24;;;;;;;;;4.00;3.00;;;;;29.53;100.00;101261.25;5097058;27;51084;-39
2022/10/05 18:26:45;;;;;;;;;7.75;6.50;;;;;29.50;100.00;101260.59;5080752;27;51178;-37
2022/10/05 18:30:25;;;;;;;;;5.50;4.50;;;;;29.39;100.00;101264.16;5089178;27;51611;-37
2022/10/05 18:33:30;;;;;;;;;8.25;3.75;;;;;29.31;100.00;101283.03;5059694;27;51089;-38
2022/10/05 18:36:15;;;;;;;;;8.75;6.25;;;;;29.29;100.00;101294.09;5084519;27;51164;-38
2022/10/05 18:39:30;;;;;;;;;6.25;5.00;;;;;29.26;100.00;101290.69;5085617;27;51320;-39
2022/10/05 18:42:25;;;;;;;;;6.75;5.25;;;;;29.25;100.00;101294.44;5081566;27;51487;-39
2022/10/05 18:45:52;;;;;;;;;5.50;4.75;;;;;29.24;100.00;101299.06;5081387;27;51396;-39
2022/10/05 18:49:22;;;;;;;;;5.75;5.25;;;;;29.22;100.00;101311.97;5086519;27;51457;-38
2022/10/05 18:52:22;;;;;;;;;6.50;6.50;;;;;29.16;100.00;101317.91;5073027;27;51438;-38
2022/10/05 18:55:16;;;;;;;;;8.00;6.75;;;;;29.16;100.00;101321.53;5079712;27;51507;-39
2022/10/05 18:58:40;;;;;;;;;13.50;6.00;;;;;29.14;100.00;101331.72;5095281;27;51180;-38
2022/10/05 19:01:51;;;;;;;;;8.00;6.00;;;;;29.17;100.00;101325.13;5074647;27;51174;-38
2022/10/05 19:04:53;;;;;;;;;6.25;6.00;;;;;29.20;100.00;101334.03;5099495;27;51330;-38
2022/10/05 19:07:59;;;;;;;;;6.75;4.50;;;;;29.20;100.00;101336.78;5086392;27;51169;-38
2022/10/05 19:10:49;;;;;;;;;5.50;4.00;;;;;29.22;100.00;101331.16;5080519;27;51138;-39
2022/10/05 19:14:32;;;;;;;;;6.00;5.00;;;;;29.25;100.00;101338.28;5102520;27;51154;-37
2022/10/05 19:17:37;;;;;;;;;5.00;4.75;;;;;29.25;100.00;101333.69;5060000;27;51135;-38
2022/10/05 19:20:36;;;;;;;;;10.25;7.75;;;;;29.25;100.00;101346.50;5071489;27;51182;-39
2022/10/05 19:23:24;;;;;;;;;11.00;7.00;;;;;29.21;100.00;101343.13;5099338;27;51187;-39
2022/10/05 19:26:36;;;;;;;;;10.75;9.25;;;;;29.23;100.00;101371.28;5100330;27;51150;-43
2022/10/05 19:30:14;;;;;;;;;10.00;9.00;;;;;29.26;100.00;101382.00;5084061;27;51175;-37
2022/10/05 19:33:36;;;;;;;;;12.25;10.50;;;;;29.33;100.00;101385.22;5065076;27;51360;-38
2022/10/05 19:36:40;;;;;;;;;10.75;9.00;;;;;29.36;100.00;101391.38;5093497;27;51109;-38
2022/10/05 19:39:34;;;;;;;;;10.75;8.50;;;;;29.34;100.00;101398.81;5070541;27;51443;-39
2022/10/05 19:42:54;;;;;;;;;10.50;9.75;;;;;29.34;100.00;101396.09;5080577;27;51447;-39
2022/10/05 19:46:14;;;;;;;;;5.25;5.25;;;;;29.34;100.00;101404.31;5059884;27;51089;-39
2022/10/05 19:48:59;;;;;;;;;5.25;4.50;;;;;29.29;100.00;101406.47;5096027;27;51142;-38
2022/10/05 19:51:50;;;;;;;;;7.50;6.25;;;;;29.31;100.00;101420.06;5084630;27;51248;-39
2022/10/05 19:54:35;;;;;;;;;7.25;6.00;;;;;29.31;100.00;101417.31;5091491;27;51436;-38
2022/10/05 19:57:19;;;;;;;;;9.25;7.00;;;;;29.32;100.00;101425.44;5099585;27;51123;-38
2022/10/05 20:00:05;;;;;;;;;5.75;5.75;;;;;29.32;100.00;101428.16;5099412;27;51230;-39
2022/10/05 20:02:51;;;;;;;;;10.25;6.50;;;;;29.30;100.00;101424.66;5095325;27;51158;-40
2022/10/05 20:05:36;;;;;;;;;8.00;7.50;;;;;29.30;100.00;101419.19;5096463;27;51214;-38
2022/10/05 20:08:25;;;;;;;;;11.75;11.75;;;;;29.26;100.00;101405.81;5095463;27;51186;-38
2022/10/05 20:11:20;;;;;;;;;9.75;8.00;;;;;29.20;100.00;101418.97;5083905;27;51053;-38
2022/10/05 20:14:05;;;;;;;;;10.75;5.75;;;;;29.19;100.00;101417.22;5082648;27;51461;-39
2022/10/05 20:20:39;;;;;;;;;10.50;8.75;;;;;29.22;100.00;101430.69;5087938;27;51158;-40
2022/10/05 20:23:27;;;;;;;;;8.75;7.25;;;;;29.23;100.00;101437.91;5100188;27;51502;-38
2022/10/05 20:29:44;;;;;;;;;8.00;6.50;;;;;29.19;100.00;101444.63;5091528;27;51486;-39
2022/10/05 20:32:30;;;;;;;;;4.50;1.25;;;;;29.18;100.00;101452.94;5102922;27;51210;-39
2022/10/05 20:35:17;;;;;;;;;4.75;3.75;;;;;29.20;100.00;101451.88;5095791;27;51295;-38
2022/10/05 20:38:01;;;;;;;;;6.75;4.00;;;;;29.21;100.00;101453.59;5085590;27;51116;-39
2022/10/05 20:40:46;;;;;;;;;4.25;4.25;;;;;29.19;100.00;101458.34;5081086;27;51870;-38
2022/10/05 20:43:30;;;;;;;;;6.50;3.75;;;;;29.16;100.00;101464.03;5081859;27;51298;-39
2022/10/05 20:46:16;;;;;;;;;5.75;3.00;;;;;29.16;100.00;101469.50;5091492;27;51168;-37
2022/10/05 20:49:01;;;;;;;;;6.25;5.00;;;;;29.18;100.00;101475.75;5098710;27;51142;-39
2022/10/05 20:51:46;;;;;;;;;7.00;1.00;;;;;29.20;100.00;101473.78;5093499;27;51450;-39
2022/10/05 20:54:31;;;;;;;;;11.50;4.75;;;;;29.18;100.00;101481.25;5099401;27;51389;-44
2022/10/05 20:57:19;;;;;;;;;3.00;2.50;;;;;29.14;100.00;101484.31;5096305;27;51116;-44
2022/10/05 21:00:05;;;;;;;;;4.00;2.50;;;;;29.08;100.00;101491.09;5067387;27;51233;-44
2022/10/05 21:02:50;;;;;;;;;5.75;5.00;;;;;29.05;100.00;101500.38;5070347;27;51253;-43
2022/10/05 21:05:35;;;;;;;;;4.25;2.75;;;;;29.03;100.00;101502.38;5082129;27;51176;-47
2022/10/05 21:08:20;;;;;;;;;8.00;3.50;;;;;29.01;100.00;101506.19;5086596;27;51168;-42
2022/10/05 21:11:08;;;;;;;;;4.00;3.00;;;;;29.01;100.00;101497.97;5081047;27;51096;-43
2022/10/05 21:13:53;;;;;;;;;6.75;5.00;;;;;28.99;100.00;101494.47;5062668;27;51255;-42
2022/10/05 21:16:40;;;;;;;;;4.00;2.00;;;;;29.00;100.00;101493.47;5083090;27;51080;-43
2022/10/05 21:19:24;;;;;;;;;4.75;4.75;;;;;28.99;100.00;101486.25;5065939;27;51184;-43
2022/10/05 21:22:09;;;;;;;;;5.00;3.00;;;;;28.95;100.00;101473.75;5062769;27;51682;-44
2022/10/05 21:24:54;;;;;;;;;5.25;5.00;;;;;28.92;100.00;101486.69;5083410;27;51171;-43
2022/10/05 21:27:39;;;;;;;;;2.50;2.50;;;;;28.85;100.00;101485.34;5081413;27;51187;-44
2022/10/05 21:30:24;;;;;;;;;4.00;3.00;;;;;28.80;100.00;101490.25;5095775;27;51583;-43
2022/10/05 21:33:09;;;;;;;;;6.75;3.50;;;;;28.86;100.00;101510.88;5082067;27;51167;-43
2022/10/05 21:35:54;;;;;;;;;5.25;3.25;;;;;28.87;100.00;101501.69;5098891;27;51399;-43
2022/10/05 21:38:38;;;;;;;;;3.00;2.00;;;;;28.84;100.00;101502.78;5095582;27;51216;-44
2022/10/05 21:41:23;;;;;;;;;1.75;1.75;;;;;28.82;100.00;101491.03;5081953;27;51394;-43
2022/10/05 21:44:07;;;;;;;;;3.25;3.00;;;;;28.81;100.00;101486.53;5073872;27;51092;-44
2022/10/05 21:46:54;;;;;;;;;2.75;2.25;;;;;28.79;100.00;101488.50;5081122;27;51142;-43
2022/10/05 21:49:40;;;;;;;;;6.00;3.00;;;;;28.79;100.00;101491.25;5080479;27;51192;-43
2022/10/05 21:52:25;;;;;;;;;4.00;3.00;;;;;28.77;100.00;101487.75;5080925;27;51108;-42
2022/10/05 21:55:09;;;;;;;;;3.75;3.75;;;;;28.76;100.00;101483.25;5085028;27;51477;-42
2022/10/05 21:57:55;;;;;;;;;5.00;3.75;;;;;28.78;100.00;101480.41;5081731;27;51248;-43
2022/10/05 22:00:41;;;;;;;;;4.50;3.00;;;;;28.75;100.00;101484.25;5083687;27;51530;-44
2022/10/05 22:03:26;;;;;;;;;4.00;2.00;;;;;28.75;100.00;101486.97;5083389;27;51221;-43
2022/10/05 22:06:11;;;;;;;;;5.00;3.00;;;;;28.67;100.00;101472.91;5079702;27;51600;-43
2022/10/05 22:08:56;;;;;;;;;3.50;2.00;;;;;28.71;100.00;101488.13;5084498;27;51366;-43
2022/10/05 22:11:41;;;;;;;;;4.00;2.50;;;;;28.70;100.00;101470.84;5080839;27;51053;-43
2022/10/05 22:14:27;;;;;;;;;5.00;2.75;;;;;28.68;100.00;101467.31;5080382;27;51161;-43
2022/10/05 22:17:23;;;;;;;;;2.50;2.00;;;;;28.66;100.00;101452.84;5091343;27;51020;-43
2022/10/05 22:20:13;;;;;;;;;1.50;1.50;;;;;28.61;100.00;101449.56;5093935;27;51179;-43
2022/10/05 22:22:57;;;;;;;;;3.25;3.00;;;;;28.59;100.00;101460.59;5080575;27;51144;-44
2022/10/05 22:25:42;;;;;;;;;4.50;2.75;;;;;28.57;100.00;101457.09;5098520;27;51144;-43
2022/10/05 22:28:27;;;;;;;;;1.75;1.75;;;;;28.56;100.00;101449.00;5100786;27;51703;-44
2022/10/05 22:31:12;;;;;;;;;5.50;3.50;;;;;28.61;100.00;101453.16;5088426;27;51679;-45
2022/10/05 22:33:57;;;;;;;;;3.00;3.00;;;;;28.64;100.00;101446.59;5087574;27;51044;-43
2022/10/05 22:36:41;;;;;;;;;4.75;2.25;;;;;28.59;100.00;101433.22;5085157;27;51698;-44
2022/10/05 22:39:26;;;;;;;;;3.25;3.25;;;;;28.61;100.00;101439.47;5081817;27;51154;-43
2022/10/05 22:42:10;;;;;;;;;2.50;1.50;;;;;28.59;100.00;101430.50;5083897;27;51178;-43
2022/10/05 22:44:55;;;;;;;;;3.25;1.25;;;;;28.56;100.00;101425.25;5080070;27;51292;-43
2022/10/05 22:47:41;;;;;;;;;3.50;1.00;;;;;28.54;100.00;101424.47;5083113;27;51255;-42
2022/10/05 22:50:25;;;;;;;;;4.00;2.75;;;;;28.52;100.00;101417.34;5093163;27;51131;-43
2022/10/05 22:53:11;;;;;;;;;1.25;1.25;;;;;28.50;100.00;101419.31;5093643;27;51097;-43
2022/10/05 22:55:56;;;;;;;;;5.00;3.25;;;;;28.50;100.00;101420.19;5093785;27;51557;-44
2022/10/05 22:58:41;;;;;;;;;5.50;2.50;;;;;28.50;100.00;101430.28;5088876;27;51002;-43
2022/10/05 23:01:26;;;;;;;;;4.50;2.25;;;;;28.47;100.00;101417.66;5098687;27;51305;-43
2022/10/05 23:04:11;;;;;;;;;4.50;3.25;;;;;28.46;100.00;101415.94;5081957;27;51167;-42
2022/10/05 23:06:55;;;;;;;;;2.00;2.00;;;;;28.48;100.00;101421.28;5095799;27;51270;-43
2022/10/05 23:09:40;;;;;;;;;4.75;3.00;;;;;28.42;100.00;101408.91;5065865;27;51490;-43
2022/10/05 23:12:25;;;;;;;;;2.25;2.25;;;;;28.48;100.00;101405.72;5083581;27;51031;-44
2022/10/05 23:15:10;;;;;;;;;5.00;3.25;;;;;28.49;100.00;101403.88;5080685;27;51051;-42
2022/10/05 23:17:56;;;;;;;;;2.00;2.00;;;;;28.45;100.00;101398.59;5083595;27;51178;-44
2022/10/05 23:20:40;;;;;;;;;2.00;2.00;;;;;28.42;100.00;101396.06;5097363;27;51464;-43
2022/10/05 23:23:26;;;;;;;;;4.25;3.00;;;;;28.42;100.00;101389.72;5089311;27;51129;-43
2022/10/05 23:26:11;;;;;;;;;3.50;1.50;;;;;28.39;100.00;101389.94;5086811;27;51410;-43
2022/10/05 23:28:56;;;;;;;;;3.50;2.00;;;;;28.35;100.00;101381.06;5096213;27;51221;-44
2022/10/05 23:31:40;;;;;;;;;4.25;3.00;;;;;28.38;100.00;101393.66;5096275;27;51078;-43
2022/10/05 23:34:26;;;;;;;;;2.50;2.50;;;;;28.38;100.00;101389.06;5085783;27;51438;-45
2022/10/05 23:37:10;;;;;;;;;3.25;3.00;;;;;28.39;100.00;101388.09;5092374;27;51125;-44
2022/10/05 23:39:55;;;;;;;;;4.50;3.00;;;;;28.38;100.00;101391.81;5084893;27;51146;-43
2022/10/05 23:42:40;;;;;;;;;2.75;2.00;;;;;28.40;100.00;101400.81;5083996;27;51185;-43
2022/10/05 23:45:25;;;;;;;;;5.00;3.00;;;;;28.39;100.00;101399.03;5084114;27;51522;-51
2022/10/05 23:48:09;;;;;;;;;4.75;4.25;;;;;28.38;100.00;101397.28;5091049;27;51104;-43
2022/10/05 23:50:54;;;;;;;;;6.75;3.75;;;;;28.39;100.00;101398.16;5096055;27;51177;-43
2022/10/05 23:53:39;;;;;;;;;4.00;2.00;;;;;28.36;100.00;101388.28;5089880;27;51152;-43
2022/10/05 23:56:23;;;;;;;;;2.25;1.50;;;;;28.34;100.00;101392.13;5094496;27;51066;-43
2022/10/05 23:59:07;;;;;;;;;2.00;2.00;;;;;28.33;100.00;101393.97;5091844;27;51540;-43
